createdAt,value
2019-01-02T00:02:01.363Z,82.66
2019-01-02T00:04:49.854Z,82.77
2019-01-02T00:10:14.526Z,83.08
2019-01-02T00:12:44.148Z,83.31
2019-01-02T00:15:15.702Z,83.44
2019-01-02T00:17:45.380Z,83.54
2019-01-02T00:20:15.791Z,83.59
2019-01-02T00:22:45.682Z,83.63
2019-01-02T00:25:15.378Z,83.60
2019-01-02T00:30:33.838Z,83.48
2019-01-02T00:35:54.430Z,83.19
2019-01-02T00:38:24.070Z,82.98
2019-01-02T00:40:55.495Z,82.79
2019-01-02T00:46:00.548Z,82.20
2019-01-02T00:48:30.239Z,81.81
2019-01-02T00:51:01.692Z,81.57
2019-01-02T00:53:31.317Z,81.26
2019-01-02T00:56:03.056Z,80.83
2019-01-02T00:58:32.689Z,80.38
2019-01-02T01:01:04.332Z,79.96
2019-01-02T01:03:34.005Z,79.43
2019-01-02T01:06:05.588Z,78.98
2019-01-02T01:08:35.227Z,78.44
2019-01-02T01:11:06.853Z,78.07
2019-01-02T01:13:36.467Z,77.85
2019-01-02T01:16:07.997Z,77.72
2019-01-02T01:18:37.710Z,77.22
2019-01-02T01:21:07.347Z,76.34
2019-01-02T01:26:25.885Z,75.56
2019-01-02T01:31:44.352Z,74.27
2019-01-02T01:34:13.978Z,74.45
2019-01-02T01:36:43.613Z,74.30
2019-01-02T01:39:15.226Z,73.78
2019-01-02T01:41:44.849Z,73.49
2019-01-02T01:44:14.484Z,73.46
2019-01-02T01:46:44.257Z,72.98
2019-01-02T01:49:13.903Z,72.43
2019-01-02T01:51:45.359Z,72.06
2019-01-02T01:54:15.031Z,71.94
2019-01-02T01:56:44.660Z,71.48
2019-01-02T02:01:56.869Z,69.99
2019-01-02T02:04:26.524Z,69.92
2019-01-02T02:06:57.929Z,69.42
2019-01-02T02:09:27.588Z,69.42
2019-01-02T02:11:57.245Z,68.94
2019-01-02T02:17:15.578Z,68.67
2019-01-02T02:19:45.197Z,68.50
2019-01-02T02:22:16.625Z,68.51
2019-01-02T02:24:46.290Z,68.40
2019-01-02T02:27:17.905Z,68.09
2019-01-02T02:30:07.483Z,67.83
2019-01-02T02:32:37.383Z,68.04
2019-01-02T02:35:07.655Z,67.79
2019-01-02T02:37:37.302Z,67.59
2019-01-02T02:40:08.009Z,67.34
2019-01-02T02:42:37.617Z,67.28
2019-01-02T02:45:29.530Z,66.88
2019-01-02T02:47:59.439Z,67.23
2019-01-02T02:55:55.019Z,67.08
2019-01-02T02:58:45.214Z,66.67
2019-01-02T03:04:03.909Z,66.57
2019-01-02T03:06:55.421Z,66.70
2019-01-02T03:09:26.027Z,66.44
2019-01-02T03:11:55.634Z,66.09
2019-01-02T03:14:25.256Z,66.03
2019-01-02T03:16:56.762Z,66.13
2019-01-02T03:19:28.153Z,66.12
2019-01-02T03:22:00.039Z,66.08
2019-01-02T03:24:30.010Z,66.07
2019-01-02T03:26:59.806Z,66.08
2019-01-02T03:29:29.686Z,65.73
2019-01-02T03:32:01.841Z,65.75
2019-01-02T03:34:31.870Z,65.48
2019-01-02T03:37:01.478Z,65.51
2019-01-02T03:39:31.162Z,65.32
2019-01-02T03:42:03.387Z,65.46
2019-01-02T03:44:33.017Z,65.35
2019-01-02T03:47:02.673Z,65.08
2019-01-02T03:49:32.575Z,65.08
2019-01-02T03:52:02.177Z,65.07
2019-01-02T03:54:31.860Z,64.82
2019-01-02T03:57:01.570Z,64.73
2019-01-02T03:59:31.198Z,64.75
2019-01-02T04:02:00.889Z,64.42
2019-01-02T04:04:30.739Z,64.24
2019-01-02T04:07:00.504Z,64.37
2019-01-02T04:09:30.174Z,64.42
2019-01-02T04:11:59.955Z,64.47
2019-01-02T04:14:29.599Z,64.33
2019-01-02T04:16:59.257Z,64.14
2019-01-02T04:19:29.200Z,63.70
2019-01-02T04:21:58.810Z,63.57
2019-01-02T04:24:28.478Z,63.64
2019-01-02T04:26:58.189Z,63.72
2019-01-02T04:29:27.834Z,63.84
2019-01-02T04:31:57.525Z,63.69
2019-01-02T04:34:27.470Z,63.55
2019-01-02T04:36:57.097Z,63.24
2019-01-02T04:39:26.785Z,63.24
2019-01-02T04:41:56.986Z,63.18
2019-01-02T04:47:15.372Z,63.43
2019-01-02T04:49:44.997Z,63.59
2019-01-02T04:52:14.615Z,63.68
2019-01-02T04:55:03.259Z,64.05
2019-01-02T04:57:32.882Z,64.34
2019-01-02T05:00:02.518Z,64.64
2019-01-02T05:02:32.453Z,64.91
2019-01-02T05:05:02.081Z,65.10
2019-01-02T05:07:31.802Z,65.63
2019-01-02T05:10:01.790Z,66.16
2019-01-02T05:12:31.398Z,66.28
2019-01-02T05:15:01.038Z,66.15
2019-01-02T05:17:30.885Z,65.52
2019-01-02T05:20:00.515Z,65.06
2019-01-02T05:22:30.227Z,64.07
2019-01-02T05:25:00.017Z,64.25
2019-01-02T05:27:29.651Z,63.90
2019-01-02T05:29:59.307Z,63.74
2019-01-02T05:32:29.053Z,63.72
2019-01-02T05:34:58.862Z,63.23
2019-01-02T05:37:28.668Z,63.35
2019-01-02T05:39:58.598Z,63.10
2019-01-02T05:42:28.231Z,63.07
2019-01-02T05:44:57.862Z,62.76
2019-01-02T05:47:27.727Z,62.32
2019-01-02T05:49:57.355Z,62.32
2019-01-02T05:52:26.999Z,62.10
2019-01-02T05:54:56.854Z,62.21
2019-01-02T05:57:26.483Z,62.11
2019-01-02T05:59:56.103Z,62.06
2019-01-02T06:02:25.989Z,61.78
2019-01-02T06:04:55.612Z,61.42
2019-01-02T06:07:25.574Z,61.09
2019-01-02T06:09:55.324Z,61.12
2019-01-02T06:12:25.039Z,60.19
2019-01-02T06:14:54.677Z,60.31
2019-01-02T06:17:24.614Z,60.18
2019-01-02T06:19:54.262Z,59.99
2019-01-02T06:22:23.939Z,59.89
2019-01-02T06:24:54.296Z,59.80
2019-01-02T06:27:23.975Z,59.64
2019-01-02T06:29:53.621Z,59.11
2019-01-02T06:32:23.451Z,58.60
2019-01-02T06:34:53.077Z,58.31
2019-01-02T06:37:23.265Z,58.34
2019-01-02T06:39:53.375Z,57.87
2019-01-02T06:42:23.102Z,57.36
2019-01-02T06:44:52.761Z,57.76
2019-01-02T06:47:22.706Z,57.76
2019-01-02T06:49:52.352Z,56.89
2019-01-02T06:52:21.986Z,57.14
2019-01-02T07:00:01.874Z,57.33
2019-01-02T07:02:31.502Z,57.03
2019-01-02T07:05:20.165Z,57.09
2019-01-02T07:07:49.834Z,57.22
2019-01-02T07:10:38.579Z,57.49
2019-01-02T07:13:27.145Z,57.45
2019-01-02T07:15:56.908Z,57.46
2019-01-02T07:18:26.543Z,56.76
2019-01-02T07:20:56.162Z,57.03
2019-01-02T07:23:26.227Z,56.96
2019-01-02T07:25:55.890Z,57.16
2019-01-02T07:28:25.565Z,56.94
2019-01-02T07:30:55.448Z,56.99
2019-01-02T07:33:30.920Z,57.18
2019-01-02T07:36:28.051Z,57.39
2019-01-02T07:39:37.791Z,57.19
2019-01-02T07:42:45.451Z,57.15
2019-01-02T07:45:29.189Z,57.10
2019-01-02T07:48:26.678Z,57.13
2019-01-02T07:51:34.197Z,57.34
2019-01-02T07:54:41.910Z,57.40
2019-01-02T07:57:49.364Z,57.08
2019-01-02T08:00:30.362Z,57.41
2019-01-02T08:03:37.829Z,57.41
2019-01-02T08:06:46.200Z,57.51
2019-01-02T08:09:37.424Z,57.70
2019-01-02T08:12:45.169Z,57.87
2019-01-02T08:15:53.539Z,58.26
2019-01-02T08:19:01.250Z,58.56
2019-01-02T08:22:08.712Z,58.91
2019-01-02T08:25:04.935Z,59.15
2019-01-02T08:28:12.391Z,59.26
2019-01-02T08:31:20.107Z,59.38
2019-01-02T08:34:27.595Z,59.62
2019-01-02T08:37:35.286Z,59.53
2019-01-02T08:40:42.741Z,59.49
2019-01-02T08:43:50.477Z,59.50
2019-01-02T08:46:57.937Z,59.43
2019-01-02T08:50:05.621Z,59.39
2019-01-02T08:53:13.083Z,59.50
2019-01-02T08:56:20.668Z,59.49
2019-01-02T09:02:43.834Z,59.46
2019-01-02T09:05:51.664Z,59.58
2019-01-02T09:08:54.924Z,59.63
2019-01-02T09:12:02.218Z,59.69
2019-01-02T09:14:43.818Z,59.64
2019-01-02T09:17:24.638Z,59.85
2019-01-02T09:20:32.290Z,59.85
2019-01-02T09:23:39.789Z,59.65
2019-01-02T09:29:48.554Z,59.40
2019-01-02T09:32:56.084Z,59.34
2019-01-02T09:35:50.989Z,59.31
2019-01-02T09:38:32.730Z,59.14
2019-01-02T09:41:40.555Z,59.12
2019-01-02T09:44:48.119Z,59.12
2019-01-02T09:47:45.347Z,59.40
2019-01-02T09:50:48.171Z,59.39
2019-01-02T09:53:36.670Z,59.33
2019-01-02T09:56:44.366Z,59.42
2019-01-02T09:59:26.109Z,59.23
2019-01-02T10:02:33.919Z,59.29
2019-01-02T10:05:49.724Z,59.21
2019-01-02T10:08:57.238Z,59.14
2019-01-02T10:12:04.903Z,59.38
2019-01-02T10:15:12.896Z,59.81
2019-01-02T10:18:20.736Z,60.28
2019-01-02T10:21:02.261Z,60.41
2019-01-02T10:23:58.537Z,60.16
2019-01-02T10:27:06.115Z,59.87
2019-01-02T10:30:13.743Z,59.65
2019-01-02T10:33:21.236Z,59.75
2019-01-02T10:36:29.091Z,59.69
2019-01-02T10:39:36.570Z,59.68
2019-01-02T10:42:44.119Z,59.72
2019-01-02T10:45:35.446Z,59.74
2019-01-02T10:48:16.248Z,59.82
2019-01-02T10:51:23.754Z,59.71
2019-01-02T10:54:05.634Z,59.60
2019-01-02T10:56:46.835Z,59.55
2019-01-02T10:59:54.753Z,59.67
2019-01-02T11:03:02.255Z,59.61
2019-01-02T11:06:09.890Z,59.73
2019-01-02T11:09:17.432Z,59.74
2019-01-02T11:12:24.991Z,59.66
2019-01-02T11:15:32.588Z,59.63
2019-01-02T11:18:25.806Z,59.68
2019-01-02T11:21:33.543Z,59.73
2019-01-02T11:24:41.097Z,59.75
2019-01-02T11:27:48.981Z,59.89
2019-01-02T11:30:41.832Z,59.98
2019-01-02T11:33:22.790Z,60.20
2019-01-02T11:36:30.232Z,60.32
2019-01-02T11:39:37.711Z,60.45
2019-01-02T11:42:25.483Z,60.68
2019-01-02T11:45:22.255Z,60.74
2019-01-02T11:48:03.448Z,60.80
2019-01-02T11:50:33.177Z,60.95
2019-01-02T11:53:21.880Z,61.14
2019-01-02T11:55:51.546Z,61.31
2019-01-02T11:58:21.201Z,61.42
2019-01-02T12:00:51.040Z,61.53
2019-01-02T12:03:20.697Z,61.60
2019-01-02T12:05:50.323Z,61.64
2019-01-02T12:08:20.334Z,61.67
2019-01-02T12:13:25.741Z,62.01
2019-01-02T12:15:55.424Z,62.06
2019-01-02T12:18:25.169Z,62.09
2019-01-02T12:20:54.999Z,62.00
2019-01-02T12:23:24.677Z,61.81
2019-01-02T12:25:54.294Z,61.73
2019-01-02T12:28:24.002Z,61.54
2019-01-02T12:31:12.609Z,61.53
2019-01-02T12:33:42.347Z,61.37
2019-01-02T12:36:11.957Z,61.18
2019-01-02T12:38:41.637Z,60.70
2019-01-02T12:41:11.431Z,60.54
2019-01-02T12:43:41.158Z,60.55
2019-01-02T12:46:10.854Z,60.59
2019-01-02T12:48:59.488Z,60.36
2019-01-02T12:51:47.962Z,60.12
2019-01-02T12:54:17.693Z,60.29
2019-01-02T12:56:47.314Z,60.45
2019-01-02T12:59:57.502Z,60.64
2019-01-02T13:03:04.958Z,60.40
2019-01-02T13:05:46.342Z,60.43
2019-01-02T13:08:53.815Z,60.68
2019-01-02T13:11:47.099Z,60.84
2019-01-02T13:14:54.566Z,60.87
2019-01-02T13:18:02.158Z,60.96
2019-01-02T13:20:57.814Z,61.18
2019-01-02T13:23:32.922Z,61.35
2019-01-02T13:26:10.933Z,61.51
2019-01-02T13:29:19.212Z,61.63
2019-01-02T13:32:26.664Z,61.85
2019-01-02T13:35:19.805Z,61.93
2019-01-02T13:38:27.307Z,61.97
2019-01-02T13:41:34.925Z,62.12
2019-01-02T13:44:27.673Z,62.26
2019-01-02T13:47:35.370Z,62.49
2019-01-02T13:50:36.010Z,62.67
2019-01-02T13:53:08.541Z,62.71
2019-01-02T13:55:38.200Z,62.70
2019-01-02T13:58:07.835Z,62.78
2019-01-02T14:00:37.767Z,62.91
2019-01-02T14:03:07.415Z,62.95
2019-01-02T14:05:40.464Z,63.02
2019-01-02T14:08:10.154Z,63.10
2019-01-02T14:10:39.779Z,63.26
2019-01-02T14:16:27.323Z,63.61
2019-01-02T14:18:56.526Z,63.73
2019-01-02T14:21:37.844Z,63.79
2019-01-02T14:24:07.041Z,63.88
2019-01-02T14:26:36.246Z,63.93
2019-01-02T14:29:05.594Z,64.00
2019-01-02T14:31:38.691Z,64.07
2019-01-02T14:34:05.723Z,64.20
2019-01-02T14:36:35.067Z,64.23
2019-01-02T14:42:13.280Z,64.22
2019-01-02T14:44:42.715Z,64.39
2019-01-02T14:47:11.910Z,64.48
2019-01-02T14:49:41.363Z,64.54
2019-01-02T14:52:10.563Z,64.55
2019-01-02T14:54:39.748Z,64.54
2019-01-02T14:57:09.102Z,64.51
2019-01-02T14:59:38.364Z,64.46
2019-01-02T15:02:07.625Z,64.41
2019-01-02T15:07:11.656Z,64.42
2019-01-02T15:09:40.871Z,64.37
2019-01-02T15:12:10.093Z,64.43
2019-01-02T15:14:39.371Z,64.46
2019-01-02T15:17:08.780Z,64.52
2019-01-02T15:19:37.963Z,64.50
2019-01-02T15:22:27.272Z,64.57
2019-01-02T15:24:56.549Z,64.61
2019-01-02T15:30:14.479Z,64.69
2019-01-02T15:32:43.672Z,64.69
2019-01-02T15:35:12.947Z,64.78
2019-01-02T15:37:42.250Z,64.78
2019-01-02T15:40:12.089Z,64.80
2019-01-02T15:42:41.279Z,64.87
2019-01-02T15:45:10.936Z,64.89
2019-01-02T15:47:40.398Z,64.84
2019-01-02T15:50:11.070Z,64.97
2019-01-02T15:52:40.560Z,65.00
2019-01-02T15:55:09.972Z,64.98
2019-01-02T16:00:27.706Z,64.97
2019-01-02T16:02:57.006Z,64.96
2019-01-02T16:05:26.266Z,64.99
2019-01-02T16:07:55.706Z,65.04
2019-01-02T16:10:24.919Z,65.13
2019-01-02T16:12:54.138Z,65.13
2019-01-02T16:15:23.617Z,65.13
2019-01-02T16:17:52.816Z,65.17
2019-01-02T16:20:22.007Z,65.16
2019-01-02T16:23:10.400Z,65.12
2019-01-02T16:25:39.823Z,65.09
2019-01-02T16:28:09.042Z,65.00
2019-01-02T16:30:38.563Z,64.97
2019-01-02T16:33:07.756Z,64.96
2019-01-02T16:35:36.967Z,65.05
2019-01-02T16:38:06.328Z,65.26
2019-01-02T16:40:35.563Z,65.36
2019-01-02T16:43:04.791Z,65.40
2019-01-02T16:45:34.239Z,65.31
2019-01-02T16:48:03.538Z,65.28
2019-01-02T16:50:32.796Z,65.21
2019-01-02T16:53:02.262Z,65.14
2019-01-02T16:55:31.572Z,65.10
2019-01-02T16:58:00.864Z,65.10
2019-01-02T17:00:30.265Z,65.06
2019-01-02T17:03:00.967Z,65.10
2019-01-02T17:05:30.173Z,65.15
2019-01-02T17:07:59.491Z,65.16
2019-01-02T17:10:28.690Z,65.22
2019-01-02T17:12:57.959Z,65.30
2019-01-02T17:15:27.548Z,65.35
2019-01-02T17:17:56.694Z,65.46
2019-01-02T17:20:25.905Z,65.51
2019-01-02T17:22:55.395Z,65.55
2019-01-02T17:25:24.587Z,65.54
2019-01-02T17:28:13.136Z,65.59
2019-01-02T17:30:42.323Z,65.63
2019-01-02T17:33:11.695Z,65.72
2019-01-02T17:35:41.244Z,65.75
2019-01-02T17:38:10.442Z,65.87
2019-01-02T17:40:39.640Z,66.03
2019-01-02T17:43:09.158Z,66.12
2019-01-02T17:45:38.719Z,66.25
2019-01-02T17:48:07.918Z,66.24
2019-01-02T17:50:37.353Z,66.31
2019-01-02T17:53:06.536Z,66.36
2019-01-02T17:55:35.738Z,66.40
2019-01-02T17:58:05.559Z,66.47
2019-01-02T18:00:34.761Z,66.57
2019-01-02T18:03:03.946Z,66.71
2019-01-02T18:05:33.456Z,66.72
2019-01-02T18:08:02.651Z,66.82
2019-01-02T18:10:31.868Z,66.85
2019-01-02T18:13:01.272Z,66.93
2019-01-02T18:15:30.493Z,67.00
2019-01-02T18:17:59.762Z,67.05
2019-01-02T18:20:29.572Z,67.03
2019-01-02T18:25:47.117Z,67.24
2019-01-02T18:28:16.412Z,67.26
2019-01-02T18:30:45.610Z,67.35
2019-01-02T18:33:15.015Z,67.43
2019-01-02T18:35:44.223Z,67.45
2019-01-02T18:38:13.435Z,67.57
2019-01-02T18:40:42.768Z,67.66
2019-01-02T18:43:11.981Z,67.73
2019-01-02T18:45:41.255Z,67.70
2019-01-02T18:48:10.811Z,67.73
2019-01-02T18:50:40.045Z,67.77
2019-01-02T18:53:09.231Z,67.87
2019-01-02T18:55:38.812Z,67.92
2019-01-02T18:58:08.026Z,68.01
2019-01-02T19:00:37.212Z,68.02
2019-01-02T19:03:06.711Z,67.99
2019-01-02T19:05:35.912Z,68.10
2019-01-02T19:08:24.342Z,68.17
2019-01-02T19:10:53.539Z,68.14
2019-01-02T19:13:22.737Z,68.26
2019-01-02T19:18:27.402Z,68.44
2019-01-02T19:20:56.626Z,68.42
2019-01-02T19:23:25.849Z,68.58
2019-01-02T19:25:55.296Z,68.72
2019-01-02T19:28:24.599Z,68.83
2019-01-02T19:30:53.909Z,68.82
2019-01-02T19:36:11.454Z,68.92
2019-01-02T19:38:40.637Z,68.95
2019-01-02T19:41:09.829Z,68.98
2019-01-02T19:43:39.445Z,69.05
2019-01-02T19:46:08.756Z,69.16
2019-01-02T19:48:37.960Z,69.25
2019-01-02T19:51:07.656Z,69.26
2019-01-02T19:53:36.864Z,69.39
2019-01-02T19:56:06.139Z,69.51
2019-01-02T19:58:35.504Z,69.60
2019-01-02T20:01:04.751Z,69.62
2019-01-02T20:03:34.016Z,69.63
2019-01-02T20:06:03.651Z,69.81
2019-01-02T20:08:51.976Z,69.94
2019-01-02T20:11:21.333Z,70.00
2019-01-02T20:13:50.528Z,70.02
2019-01-02T20:16:19.753Z,70.02
2019-01-02T20:18:49.196Z,70.06
2019-01-02T20:21:18.438Z,70.03
2019-01-02T20:24:06.839Z,70.09
2019-01-02T20:26:36.060Z,70.13
2019-01-02T20:29:05.237Z,70.17
2019-01-02T20:31:34.839Z,70.19
2019-01-02T20:34:04.032Z,70.26
2019-01-02T20:36:33.251Z,70.39
2019-01-02T20:39:02.649Z,70.48
2019-01-02T20:41:50.768Z,70.53
2019-01-02T20:44:20.081Z,70.65
2019-01-02T20:49:37.726Z,70.82
2019-01-02T20:52:25.862Z,70.87
2019-01-02T20:54:55.475Z,70.96
2019-01-02T20:57:24.711Z,70.90
2019-01-02T20:59:53.915Z,70.84
2019-01-02T21:02:23.270Z,70.94
2019-01-02T21:04:52.470Z,71.09
2019-01-02T21:07:21.698Z,71.21
2019-01-02T21:09:51.483Z,71.28
2019-01-02T21:12:20.668Z,71.37
2019-01-02T21:14:49.859Z,71.38
2019-01-02T21:17:19.185Z,71.46
2019-01-02T21:19:48.398Z,71.52
2019-01-02T21:22:17.621Z,71.59
2019-01-02T21:24:46.983Z,71.61
2019-01-02T21:30:11.199Z,71.60
2019-01-02T21:32:40.516Z,71.56
2019-01-02T21:35:09.699Z,71.56
2019-01-02T21:37:39.066Z,71.68
2019-01-02T21:40:09.118Z,71.77
2019-01-02T21:42:38.349Z,71.99
2019-01-02T21:45:07.687Z,72.43
2019-01-02T21:47:37.000Z,72.94
2019-01-02T21:50:25.581Z,73.31
2019-01-02T21:52:56.976Z,73.60
2019-01-02T21:55:26.292Z,73.85
2019-01-02T21:57:55.524Z,73.95
2019-01-02T22:00:43.857Z,74.00
2019-01-02T22:03:13.194Z,74.08
2019-01-02T22:08:30.790Z,74.32
2019-01-02T22:11:00.007Z,74.35
2019-01-02T22:13:29.210Z,74.53
2019-01-02T22:15:58.672Z,74.67
2019-01-02T22:18:27.914Z,74.82
2019-01-02T22:20:57.192Z,74.97
2019-01-02T22:23:26.799Z,75.13
2019-01-02T22:25:55.981Z,75.21
2019-01-02T22:28:25.179Z,75.28
2019-01-02T22:30:54.679Z,75.37
2019-01-02T22:33:23.972Z,75.47
2019-01-02T22:35:53.183Z,75.60
2019-01-02T22:38:22.506Z,75.73
2019-01-02T22:40:51.682Z,75.85
2019-01-02T22:43:20.882Z,75.92
2019-01-02T22:45:50.376Z,76.01
2019-01-02T22:48:19.836Z,76.09
2019-01-02T22:50:49.040Z,76.13
2019-01-02T22:53:18.482Z,76.19
2019-01-02T22:55:47.795Z,76.28
2019-01-02T22:58:16.996Z,76.35
2019-01-02T23:01:25.675Z,76.44
2019-01-02T23:04:13.779Z,76.49
2019-01-02T23:07:02.309Z,76.52
2019-01-02T23:09:50.444Z,76.56
2019-01-02T23:12:38.692Z,76.62
2019-01-02T23:15:26.926Z,76.70
2019-01-02T23:18:15.263Z,76.70
2019-01-02T23:21:03.364Z,76.79
2019-01-02T23:23:51.694Z,76.78
2019-01-02T23:26:39.809Z,76.87
2019-01-02T23:29:28.160Z,76.90
2019-01-02T23:32:17.313Z,76.89
2019-01-02T23:35:23.372Z,76.91
2019-01-02T23:38:30.471Z,76.94
2019-01-02T23:41:18.722Z,76.95
2019-01-02T23:44:06.851Z,77.05
2019-01-02T23:46:55.211Z,77.11
2019-01-02T23:49:43.339Z,77.04
2019-01-02T23:55:19.979Z,77.09
2019-01-02T23:58:08.179Z,77.08
